Time;durP1;ratioP1;P1;durP2;ratioP2;P2;SDS_P1;SDS_P2;PMS_P1;PMS_P2;Temp;Humidity;BMP_temperature;BMP_pressure;BME280_temperature;BME280_humidity;BME280_pressure;Samples;Min_cycle;Max_cycle;Signal;HPM_P1;HPM_P2
2021/12/06 00:01:38;;;;;;;4.07;1.80;;;20.70;99.60;;;;;;4997782;28;20645;-81
2021/12/06 00:04:09;;;;;;;1.80;1.70;;;20.70;99.60;;;;;;4998389;28;20626;-82
2021/12/06 00:06:37;;;;;;;1.83;1.73;;;20.70;99.60;;;;;;5015367;28;20251;-81
2021/12/06 00:09:06;;;;;;;3.83;1.90;;;20.70;99.70;;;;;;5015598;28;20224;-81
2021/12/06 00:11:34;;;;;;;1.93;1.83;;;20.70;99.60;;;;;;5015738;28;20192;-82
2021/12/06 00:14:01;;;;;;;1.97;1.80;;;20.70;99.70;;;;;;4997616;28;20207;-80
2021/12/06 00:16:28;;;;;;;1.60;1.50;;;20.60;99.40;;;;;;5015330;28;20773;-81
2021/12/06 00:18:53;;;;;;;2.63;1.70;;;20.70;99.70;;;;;;4993942;28;20212;-81
2021/12/06 00:21:20;;;;;;;2.67;1.60;;;20.70;99.70;;;;;;5010954;28;20610;-78
2021/12/06 00:23:47;;;;;;;1.70;1.60;;;20.70;99.70;;;;;;5015435;28;20535;-79
2021/12/06 00:26:13;;;;;;;1.60;1.50;;;20.60;99.70;;;;;;4997408;28;20180;-79
2021/12/06 00:28:42;;;;;;;1.73;1.63;;;20.60;99.70;;;;;;5014929;28;20177;-78
2021/12/06 00:31:08;;;;;;;1.70;1.60;;;20.60;99.90;;;;;;5015437;28;20165;-78
2021/12/06 00:33:34;;;;;;;1.77;1.63;;;20.60;99.70;;;;;;5014925;28;20646;-78
2021/12/06 00:36:06;;;;;;;1.60;1.50;;;20.60;99.70;;;;;;4997047;28;20753;-78
2021/12/06 00:38:34;;;;;;;3.30;1.70;;;20.60;99.80;;;;;;5014812;28;20172;-78
2021/12/06 00:41:00;;;;;;;1.90;1.80;;;20.60;99.80;;;;;;5015234;28;20173;-79
2021/12/06 00:43:26;;;;;;;2.10;2.00;;;20.60;99.80;;;;;;5015966;28;20177;-78
2021/12/06 00:45:51;;;;;;;1.67;1.57;;;20.60;99.80;;;;;;5014729;28;20181;-78
2021/12/06 00:48:17;;;;;;;3.23;1.80;;;20.60;99.80;;;;;;5014758;28;20179;-78
2021/12/06 00:50:44;;;;;;;1.70;1.60;;;20.60;99.90;;;;;;5014719;28;20172;-78
2021/12/06 00:53:10;;;;;;;2.43;1.80;;;20.60;99.90;;;;;;5014727;28;20180;-78
2021/12/06 00:55:37;;;;;;;1.43;1.33;;;20.50;99.90;;;;;;5014574;28;20203;-78
2021/12/06 00:58:03;;;;;;;1.70;1.60;;;20.50;99.90;;;;;;5014668;28;20686;-77
2021/12/06 01:00:39;;;;;;;1.70;1.60;;;20.50;99.90;;;;;;5014803;28;20263;-78
2021/12/06 01:03:13;;;;;;;1.43;1.33;;;20.50;99.90;;;;;;5015087;28;20270;-78
2021/12/06 01:05:39;;;;;;;1.87;1.77;;;20.50;99.90;;;;;;5014198;28;20538;-78
2021/12/06 01:08:05;;;;;;;1.40;1.30;;;20.50;99.90;;;;;;5014407;28;20173;-79
2021/12/06 01:10:32;;;;;;;1.63;1.53;;;20.50;99.90;;;;;;4996789;28;20181;-77
2021/12/06 01:12:58;;;;;;;1.80;1.70;;;20.50;99.90;;;;;;5014620;28;20647;-79
2021/12/06 01:15:25;;;;;;;1.80;1.40;;;20.50;99.90;;;;;;5014104;28;20211;-78
2021/12/06 01:17:51;;;;;;;1.60;1.50;;;20.40;99.90;;;;;;5014236;28;20176;-78
2021/12/06 01:20:21;;;;;;;2.00;1.80;;;20.50;99.90;;;;;;5014296;28;20188;-78
2021/12/06 01:22:58;;;;;;;1.40;1.30;;;20.40;99.90;;;;;;5014069;28;20177;-79
2021/12/06 01:40:53;;;;;;;1.67;1.57;;;20.40;99.90;;;;;;5014210;28;20180;-78
2021/12/06 01:43:19;;;;;;;1.53;1.43;;;20.30;99.90;;;;;;4996088;28;20184;-78
2021/12/06 01:45:45;;;;;;;1.50;1.40;;;20.30;99.90;;;;;;4996318;28;20211;-77
2021/12/06 01:48:10;;;;;;;1.53;1.43;;;20.30;99.90;;;;;;5013002;28;20185;-79
2021/12/06 01:50:37;;;;;;;1.40;1.30;;;20.30;99.90;;;;;;4996176;28;20627;-80
2021/12/06 01:53:05;;;;;;;1.43;1.33;;;20.30;99.90;;;;;;5013600;28;20519;-79
2021/12/06 01:55:34;;;;;;;1.80;1.50;;;20.30;99.90;;;;;;5013300;28;20214;-79
2021/12/06 01:58:02;;;;;;;1.70;1.60;;;20.30;99.90;;;;;;5013698;28;20172;-78
2021/12/06 02:00:45;;;;;;;1.70;1.60;;;20.30;99.90;;;;;;5013670;28;20177;-80
2021/12/06 02:03:11;;;;;;;1.50;1.40;;;20.30;99.90;;;;;;4995745;28;20234;-79
2021/12/06 02:05:38;;;;;;;1.60;1.50;;;20.30;99.90;;;;;;5013186;28;20176;-79
2021/12/06 02:08:05;;;;;;;1.57;1.47;;;20.20;99.90;;;;;;5013573;28;20172;-79
2021/12/06 02:10:32;;;;;;;1.73;1.63;;;20.20;99.90;;;;;;5013022;28;20362;-79
2021/12/06 02:12:57;;;;;;;1.60;1.50;;;20.20;99.90;;;;;;4995747;28;20189;-80
2021/12/06 02:18:14;;;;;;;1.50;1.40;;;20.20;99.90;;;;;;5013258;28;20172;-79
2021/12/06 02:20:48;;;;;;;1.60;1.50;;;20.20;99.90;;;;;;4995495;28;20291;-80
2021/12/06 02:23:15;;;;;;;1.97;1.57;;;20.20;99.90;;;;;;5013362;28;20175;-79
2021/12/06 02:25:41;;;;;;;1.60;1.50;;;20.20;99.90;;;;;;4995381;28;20223;-79
2021/12/06 02:28:06;;;;;;;1.90;1.60;;;20.20;99.90;;;;;;5013141;28;20196;-80
2021/12/06 02:30:32;;;;;;;1.40;1.30;;;20.20;99.90;;;;;;5013411;28;20223;-78
2021/12/06 02:32:59;;;;;;;1.60;1.50;;;20.20;99.90;;;;;;5013028;28;20180;-78
2021/12/06 02:35:25;;;;;;;1.50;1.40;;;20.20;99.90;;;;;;5012635;28;20295;-79
2021/12/06 02:37:52;;;;;;;1.53;1.43;;;20.20;99.90;;;;;;5012924;28;20576;-78
2021/12/06 02:40:24;;;;;;;1.37;1.30;;;20.20;99.90;;;;;;5012882;28;20239;-77
2021/12/06 02:42:50;;;;;;;1.53;1.43;;;20.20;99.90;;;;;;5012927;28;20176;-79
2021/12/06 02:45:21;;;;;;;1.40;1.30;;;20.20;99.90;;;;;;4995090;28;20181;-78
2021/12/06 02:47:52;;;;;;;1.40;1.30;;;20.10;99.90;;;;;;5012638;28;20172;-77
2021/12/06 02:50:19;;;;;;;2.37;1.40;;;20.10;99.90;;;;;;4995029;28;20520;-79
2021/12/06 02:52:45;;;;;;;2.33;1.40;;;20.10;99.90;;;;;;5013024;28;20539;-78
2021/12/06 02:55:35;;;;;;;1.40;1.30;;;20.10;99.90;;;;;;5012523;28;20208;-78
2021/12/06 02:58:02;;;;;;;1.50;1.40;;;20.10;99.90;;;;;;5011880;28;20280;-77
2021/12/06 03:00:28;;;;;;;1.10;1.10;;;20.10;99.90;;;;;;4995028;28;20183;-78
2021/12/06 03:02:54;;;;;;;1.33;1.30;;;20.10;99.90;;;;;;5012505;28;20177;-79
2021/12/06 03:05:20;;;;;;;1.47;1.30;;;20.10;99.90;;;;;;5012475;28;20294;-78
2021/12/06 03:07:53;;;;;;;1.83;1.53;;;20.10;99.90;;;;;;5012538;28;20172;-80
2021/12/06 03:10:18;;;;;;;1.27;1.27;;;20.00;99.90;;;;;;5012636;28;20619;-79
2021/12/06 03:12:44;;;;;;;1.77;1.50;;;20.10;99.90;;;;;;4994828;28;20195;-79
2021/12/06 03:15:11;;;;;;;1.83;1.30;;;20.10;99.90;;;;;;5012112;28;20655;-79
2021/12/06 03:17:37;;;;;;;1.60;1.50;;;20.00;99.90;;;;;;5012357;28;20216;-78
2021/12/06 03:20:06;;;;;;;1.60;1.50;;;20.00;99.90;;;;;;5012610;28;20172;-78
2021/12/06 03:22:32;;;;;;;1.50;1.40;;;20.00;99.90;;;;;;5012552;28;20180;-79
2021/12/06 03:24:58;;;;;;;1.10;1.10;;;20.00;99.90;;;;;;5011969;28;20177;-80
2021/12/06 03:27:24;;;;;;;1.70;1.47;;;20.00;99.90;;;;;;5012416;28;20172;-78
2021/12/06 03:29:49;;;;;;;1.43;1.30;;;20.00;99.90;;;;;;5012085;28;20173;-79
2021/12/06 03:32:15;;;;;;;1.53;1.43;;;20.00;99.90;;;;;;4994882;28;20226;-79
2021/12/06 03:34:42;;;;;;;1.93;1.40;;;20.00;99.90;;;;;;5011959;28;20429;-78
2021/12/06 03:37:09;;;;;;;1.50;1.40;;;19.90;99.90;;;;;;5012295;28;20516;-78
2021/12/06 03:39:43;;;;;;;1.40;1.30;;;19.90;99.90;;;;;;5012404;28;20172;-79
2021/12/06 03:42:11;;;;;;;1.47;1.37;;;19.90;99.90;;;;;;5012204;28;20172;-78
2021/12/06 03:44:37;;;;;;;1.40;1.30;;;19.90;99.90;;;;;;5012391;28;20180;-78
2021/12/06 03:47:09;;;;;;;1.40;1.30;;;19.90;99.90;;;;;;4994701;28;20176;-77
2021/12/06 03:49:36;;;;;;;1.60;1.50;;;19.90;99.90;;;;;;5012372;28;20161;-78
2021/12/06 03:52:03;;;;;;;1.20;1.20;;;19.90;99.90;;;;;;5012296;28;20558;-78
2021/12/06 03:54:29;;;;;;;1.40;1.30;;;19.90;99.90;;;;;;5011847;28;20239;-78
2021/12/06 03:56:56;;;;;;;1.40;1.30;;;19.80;99.90;;;;;;5011760;28;20212;-77
2021/12/06 03:59:21;;;;;;;1.30;1.20;;;19.80;99.90;;;;;;4994702;28;20658;-78
2021/12/06 04:01:48;;;;;;;1.23;1.20;;;19.90;99.90;;;;;;5011911;28;20172;-78
2021/12/06 04:04:14;;;;;;;1.60;1.50;;;19.80;99.90;;;;;;5012139;28;20169;-77
2021/12/06 04:06:42;;;;;;;1.50;1.40;;;19.80;99.90;;;;;;5011557;28;20208;-79
2021/12/06 04:09:08;;;;;;;1.53;1.27;;;19.80;99.90;;;;;;4994273;28;20208;-78
2021/12/06 04:11:36;;;;;;;1.40;1.30;;;19.80;99.90;;;;;;5013072;28;20276;-77
2021/12/06 04:14:02;;;;;;;1.40;1.30;;;19.80;99.90;;;;;;5015829;28;20173;-78
2021/12/06 04:16:28;;;;;;;1.10;1.10;;;19.80;99.90;;;;;;5015146;28;20302;-77
2021/12/06 04:18:53;;;;;;;1.40;1.30;;;19.70;99.90;;;;;;4998060;28;20706;-79
2021/12/06 04:21:20;;;;;;;1.40;1.30;;;19.80;99.90;;;;;;5015266;28;20256;-79
2021/12/06 04:23:46;;;;;;;1.70;1.50;;;19.80;99.90;;;;;;5015156;28;20267;-78
2021/12/06 04:26:13;;;;;;;1.50;1.40;;;19.80;99.90;;;;;;5015034;28;20602;-78
2021/12/06 04:28:43;;;;;;;1.50;1.40;;;19.80;99.90;;;;;;4997567;28;20180;-79
2021/12/06 04:31:09;;;;;;;1.40;1.40;;;19.70;99.90;;;;;;4998110;28;20516;-77
2021/12/06 04:33:35;;;;;;;1.00;1.00;;;19.80;99.90;;;;;;5014894;28;20181;-77
2021/12/06 04:36:01;;;;;;;1.30;1.20;;;19.70;99.90;;;;;;4997197;28;20216;-78
2021/12/06 04:38:26;;;;;;;1.50;1.40;;;19.70;99.90;;;;;;5014883;28;20177;-78
2021/12/06 04:40:52;;;;;;;2.00;1.23;;;19.70;99.90;;;;;;4997702;28;20184;-79
2021/12/06 04:43:18;;;;;;;1.20;1.10;;;19.70;99.90;;;;;;5015324;28;20251;-78
2021/12/06 04:45:44;;;;;;;1.30;1.20;;;19.70;99.90;;;;;;5015453;28;20186;-78
2021/12/06 04:48:10;;;;;;;1.70;1.60;;;19.70;99.90;;;;;;5014819;28;20190;-78
2021/12/06 04:50:37;;;;;;;1.50;1.40;;;19.70;99.90;;;;;;5014861;28;20204;-78
2021/12/06 04:53:19;;;;;;;1.67;1.57;;;19.70;99.90;;;;;;5007533;28;20196;-79
2021/12/06 04:55:56;;;;;;;1.53;1.43;;;19.70;99.90;;;;;;5014686;28;20300;-79
2021/12/06 04:58:26;;;;;;;1.30;1.30;;;18.70;99.90;;;;;;5014760;28;20267;-78
2021/12/06 05:01:04;;;;;;;1.40;1.30;;;19.70;99.90;;;;;;5014810;28;20181;-78
2021/12/06 05:03:32;;;;;;;1.43;1.33;;;19.60;99.90;;;;;;5014791;28;20161;-77
2021/12/06 05:06:26;;;;;;;1.57;1.40;;;19.60;99.90;;;;;;4997108;28;20181;-80
2021/12/06 05:08:56;;;;;;;1.40;1.30;;;19.60;99.90;;;;;;4991959;28;20216;-80
2021/12/06 05:11:25;;;;;;;1.70;1.60;;;19.60;99.90;;;;;;5014620;28;20515;-81
2021/12/06 05:13:52;;;;;;;1.97;1.57;;;19.70;99.90;;;;;;5014501;28;20193;-82
2021/12/06 05:16:18;;;;;;;1.50;1.40;;;19.70;99.90;;;;;;5014315;28;20209;-82
2021/12/06 05:18:45;;;;;;;1.40;1.30;;;19.60;99.90;;;;;;5014448;28;20172;-81
2021/12/06 05:21:11;;;;;;;1.60;1.50;;;19.70;99.90;;;;;;5014395;28;20238;-81
2021/12/06 05:23:37;;;;;;;1.67;1.57;;;19.70;99.90;;;;;;4995747;28;20267;-81
2021/12/06 05:26:05;;;;;;;1.40;1.30;;;19.60;99.90;;;;;;5014272;28;20172;-81
2021/12/06 05:28:34;;;;;;;1.70;1.57;;;19.60;99.90;;;;;;5014118;28;20215;-83
2021/12/06 05:31:00;;;;;;;1.53;1.43;;;19.60;99.90;;;;;;5014282;28;20197;-81
2021/12/06 05:33:31;;;;;;;1.83;1.63;;;19.60;99.90;;;;;;5014455;28;20575;-82
2021/12/06 05:36:00;;;;;;;1.60;1.50;;;19.50;99.90;;;;;;5013759;28;20208;-82
2021/12/06 05:38:29;;;;;;;1.90;1.80;;;19.60;99.90;;;;;;4996758;28;20181;-81
2021/12/06 05:40:56;;;;;;;1.70;1.60;;;19.50;99.90;;;;;;4996172;28;20176;-81
2021/12/06 05:43:22;;;;;;;2.07;1.97;;;19.60;99.90;;;;;;5014010;28;20213;-83
2021/12/06 05:45:49;;;;;;;1.40;1.30;;;19.50;99.90;;;;;;4996274;28;20184;-82
2021/12/06 05:48:14;;;;;;;1.67;1.30;;;19.50;99.90;;;;;;4996161;28;20172;-81
2021/12/06 05:50:40;;;;;;;1.50;1.40;;;19.50;99.90;;;;;;4996220;28;20234;-82
2021/12/06 05:53:06;;;;;;;1.60;1.50;;;19.50;99.90;;;;;;5013549;28;20709;-82
2021/12/06 05:55:31;;;;;;;1.60;1.50;;;19.40;99.90;;;;;;4995614;28;20212;-81
2021/12/06 05:58:00;;;;;;;1.57;1.47;;;19.50;99.90;;;;;;4995993;28;20188;-83
2021/12/06 06:00:29;;;;;;;1.40;1.30;;;19.50;99.90;;;;;;5013481;28;20265;-81
2021/12/06 06:02:56;;;;;;;1.63;1.53;;;19.40;99.90;;;;;;4995719;28;20275;-82
2021/12/06 06:05:22;;;;;;;1.43;1.33;;;19.50;99.90;;;;;;5013252;28;20204;-81
2021/12/06 06:07:48;;;;;;;2.30;1.60;;;19.40;99.90;;;;;;5014308;28;20177;-80
2021/12/06 06:10:15;;;;;;;1.50;1.37;;;19.40;99.90;;;;;;4995686;28;20247;-79
2021/12/06 06:12:41;;;;;;;1.40;1.33;;;19.40;99.90;;;;;;5013500;28;20204;-79
2021/12/06 06:15:07;;;;;;;1.50;1.40;;;19.40;99.90;;;;;;5013424;28;20253;-79
2021/12/06 06:17:40;;;;;;;1.60;1.50;;;19.30;99.90;;;;;;5013727;28;20177;-79
2021/12/06 06:20:09;;;;;;;2.10;1.60;;;19.30;99.90;;;;;;5013336;28;20184;-80
2021/12/06 06:22:34;;;;;;;1.50;1.40;;;19.30;99.90;;;;;;5012949;28;20177;-79
2021/12/06 06:25:00;;;;;;;1.63;1.50;;;19.30;99.90;;;;;;5012735;28;20318;-79
2021/12/06 06:27:26;;;;;;;1.53;1.30;;;19.30;99.90;;;;;;5013161;28;20184;-80
2021/12/06 06:29:51;;;;;;;1.97;1.40;;;19.30;99.90;;;;;;5013247;28;20187;-80
2021/12/06 06:32:17;;;;;;;2.20;1.63;;;19.30;99.90;;;;;;5013375;28;20172;-79
2021/12/06 06:34:43;;;;;;;2.50;1.40;;;19.30;99.90;;;;;;4994685;28;20218;-79
2021/12/06 06:37:08;;;;;;;1.50;1.40;;;19.20;99.90;;;;;;5013237;28;20462;-79
2021/12/06 06:39:34;;;;;;;1.57;1.47;;;19.20;99.90;;;;;;5013067;28;20271;-79
2021/12/06 06:41:59;;;;;;;3.60;2.00;;;19.20;99.90;;;;;;4990748;28;20177;-77
2021/12/06 06:44:25;;;;;;;1.97;1.77;;;19.20;99.90;;;;;;4991866;28;20216;-78
2021/12/06 06:46:51;;;;;;;1.87;1.37;;;19.10;99.90;;;;;;5004244;28;20181;-79
2021/12/06 06:49:18;;;;;;;2.10;1.47;;;19.20;99.90;;;;;;4993166;28;20173;-79
2021/12/06 06:51:46;;;;;;;2.53;2.03;;;19.20;99.90;;;;;;5004832;28;20671;-77
2021/12/06 06:54:12;;;;;;;1.97;1.60;;;19.20;99.90;;;;;;5012939;28;20173;-78
2021/12/06 06:56:39;;;;;;;2.23;1.70;;;19.20;99.90;;;;;;5011938;28;20212;-78
2021/12/06 06:59:04;;;;;;;1.90;1.80;;;19.20;99.90;;;;;;5011299;28;20180;-79
2021/12/06 07:01:31;;;;;;;3.57;1.73;;;19.20;99.80;;;;;;5011280;28;20184;-77
2021/12/06 07:03:56;;;;;;;3.17;2.00;;;19.20;99.80;;;;;;5012030;28;20181;-77
2021/12/06 07:06:24;;;;;;;4.20;2.13;;;19.20;99.80;;;;;;5011937;28;20192;-79
2021/12/06 07:08:51;;;;;;;2.27;1.50;;;19.20;99.70;;;;;;5019781;28;20185;-79
2021/12/06 07:11:18;;;;;;;4.07;2.10;;;19.20;99.80;;;;;;5016522;28;20709;-79
2021/12/06 07:13:46;;;;;;;2.10;1.50;;;19.10;99.90;;;;;;5023593;28;20184;-78
2021/12/06 07:16:12;;;;;;;3.23;2.37;;;19.10;99.90;;;;;;5010676;28;20250;-78
2021/12/06 07:18:38;;;;;;;3.50;2.00;;;19.10;99.90;;;;;;5031988;28;20214;-78
2021/12/06 07:21:04;;;;;;;4.80;1.83;;;19.10;99.90;;;;;;5014383;28;20184;-78
2021/12/06 07:23:30;;;;;;;4.90;1.80;;;19.00;99.80;;;;;;5031981;28;20195;-78
2021/12/06 07:25:56;;;;;;;4.20;2.20;;;19.00;99.80;;;;;;5032203;28;20172;-78
2021/12/06 07:28:22;;;;;;;4.00;1.90;;;19.00;99.80;;;;;;5032033;28;20333;-78
2021/12/06 07:30:47;;;;;;;2.60;1.90;;;19.00;99.80;;;;;;5032083;28;20563;-78
2021/12/06 07:33:13;;;;;;;4.30;2.50;;;19.00;99.80;;;;;;5014038;28;20238;-78
2021/12/06 07:35:39;;;;;;;2.77;2.20;;;19.00;99.50;;;;;;5031680;28;20215;-77
2021/12/06 07:38:07;;;;;;;2.10;2.00;;;19.00;99.60;;;;;;5032115;28;20266;-78
2021/12/06 07:40:33;;;;;;;3.60;2.13;;;19.00;99.50;;;;;;5032074;28;20172;-77
2021/12/06 07:42:59;;;;;;;2.83;1.93;;;18.90;99.50;;;;;;5032061;28;20168;-78
2021/12/06 07:45:25;;;;;;;2.30;2.10;;;18.90;99.60;;;;;;5031669;28;20246;-78
2021/12/06 07:47:50;;;;;;;3.43;2.17;;;18.90;99.50;;;;;;5035063;28;20226;-78
2021/12/06 07:50:21;;;;;;;3.10;2.30;;;18.90;99.50;;;;;;5035136;28;20183;-77
2021/12/06 07:52:49;;;;;;;2.20;2.00;;;18.90;99.60;;;;;;5035788;28;20534;-78
2021/12/06 07:55:17;;;;;;;2.30;2.10;;;18.90;99.60;;;;;;5035276;28;20633;-80
2021/12/06 07:57:44;;;;;;;3.33;2.30;;;18.90;99.50;;;;;;5035640;28;20168;-80
2021/12/06 08:00:13;;;;;;;2.47;1.90;;;18.90;99.50;;;;;;5035338;28;20196;-78
2021/12/06 08:02:40;;;;;;;1.80;1.70;;;18.90;99.60;;;;;;5017636;28;20183;-80
2021/12/06 08:07:50;;;;;;;3.20;1.80;;;18.90;99.60;;;;;;5035530;28;20178;-78
2021/12/06 08:10:16;;;;;;;2.47;1.47;;;18.90;99.50;;;;;;5034987;28;20601;-81
2021/12/06 08:12:42;;;;;;;1.87;1.70;;;18.90;99.70;;;;;;5017817;28;20192;-79
2021/12/06 08:15:09;;;;;;;2.23;2.00;;;18.80;99.60;;;;;;5035041;28;20704;-81
2021/12/06 08:17:34;;;;;;;4.07;2.00;;;18.90;99.60;;;;;;5017405;28;20575;-80
2021/12/06 08:20:00;;;;;;;2.77;1.70;;;18.80;99.60;;;;;;5031734;28;20172;-80
2021/12/06 08:22:26;;;;;;;1.50;1.40;;;18.90;99.70;;;;;;5002079;28;20633;-80
2021/12/06 08:24:51;;;;;;;2.13;1.70;;;18.80;99.60;;;;;;5022700;28;20607;-82
2021/12/06 08:27:17;;;;;;;1.70;1.60;;;18.90;99.70;;;;;;5005108;28;20175;-81
2021/12/06 08:29:43;;;;;;;1.97;1.53;;;18.80;99.60;;;;;;5005332;28;20537;-79
2021/12/06 08:32:11;;;;;;;3.00;1.80;;;18.80;99.60;;;;;;5022970;28;20326;-80
2021/12/06 08:34:41;;;;;;;2.00;1.80;;;18.80;99.60;;;;;;5022552;28;20266;-79
2021/12/06 08:37:08;;;;;;;2.37;1.83;;;18.80;99.50;;;;;;5005253;28;20619;-80
2021/12/06 08:39:33;;;;;;;2.00;1.60;;;18.80;99.50;;;;;;5022709;28;20199;-79
2021/12/06 08:41:59;;;;;;;1.93;1.50;;;18.80;99.50;;;;;;5022804;28;20251;-79
2021/12/06 08:44:25;;;;;;;1.53;1.43;;;18.80;99.50;;;;;;4997240;28;20276;-82
2021/12/06 08:46:50;;;;;;;2.73;1.63;;;18.80;99.50;;;;;;5022720;28;20181;-80
2021/12/06 08:49:16;;;;;;;1.77;1.67;;;18.80;99.50;;;;;;5023288;28;20180;-80
2021/12/06 08:51:47;;;;;;;2.93;1.80;;;18.80;99.40;;;;;;5021590;28;20172;-80
2021/12/06 08:54:16;;;;;;;1.67;1.57;;;18.70;99.40;;;;;;5011629;28;20263;-81
2021/12/06 08:56:42;;;;;;;1.80;1.70;;;18.70;99.40;;;;;;5005856;28;20626;-79
2021/12/06 08:59:09;;;;;;;3.93;1.60;;;18.70;99.40;;;;;;4988061;28;20180;-80
2021/12/06 09:01:35;;;;;;;1.80;1.60;;;18.70;99.30;;;;;;5001556;28;20184;-79
2021/12/06 09:04:01;;;;;;;1.70;1.60;;;18.70;99.40;;;;;;5023361;28;20181;-79
2021/12/06 09:06:28;;;;;;;1.67;1.57;;;18.70;99.70;;;;;;5017247;28;20184;-79
2021/12/06 09:08:55;;;;;;;2.70;1.73;;;18.70;99.30;;;;;;5013603;28;20177;-79
2021/12/06 09:11:21;;;;;;;2.27;1.57;;;18.70;99.30;;;;;;5012379;28;20196;-79
2021/12/06 09:13:46;;;;;;;3.80;1.50;;;18.70;99.30;;;;;;5013035;28;20181;-79
2021/12/06 09:16:13;;;;;;;1.87;1.50;;;18.70;99.40;;;;;;5013339;28;20208;-80
2021/12/06 09:18:41;;;;;;;2.57;1.90;;;18.70;99.40;;;;;;5013824;28;20184;-81
2021/12/06 09:21:17;;;;;;;3.60;1.73;;;18.70;99.40;;;;;;5011749;28;20188;-80
2021/12/06 09:23:43;;;;;;;4.53;2.13;;;18.70;99.70;;;;;;4995109;28;20226;-82
2021/12/06 09:26:09;;;;;;;2.70;1.90;;;18.70;99.90;;;;;;5013696;28;20238;-80
2021/12/06 09:28:36;;;;;;;4.10;1.90;;;18.60;99.90;;;;;;5018117;28;20185;-80
2021/12/06 09:31:04;;;;;;;4.40;1.93;;;18.70;99.90;;;;;;5013769;28;20173;-80
2021/12/06 09:33:30;;;;;;;4.97;1.90;;;18.70;99.90;;;;;;5013759;28;20184;-79
2021/12/06 09:35:59;;;;;;;3.37;1.93;;;18.70;99.90;;;;;;5013365;28;20731;-81
2021/12/06 09:38:34;;;;;;;3.77;2.00;;;18.70;99.90;;;;;;5007062;28;20189;-80
2021/12/06 09:41:03;;;;;;;2.93;1.80;;;18.70;99.90;;;;;;4995762;28;20175;-80
2021/12/06 09:43:28;;;;;;;3.43;1.87;;;18.70;99.90;;;;;;4985840;28;20181;-80
2021/12/06 09:45:55;;;;;;;4.50;2.40;;;18.60;99.90;;;;;;5001085;28;20314;-80
2021/12/06 09:48:21;;;;;;;2.57;1.70;;;18.60;99.90;;;;;;5003742;28;20543;-80
2021/12/06 09:50:58;;;;;;;2.90;1.73;;;18.60;99.90;;;;;;5005896;28;20250;-80
2021/12/06 09:53:28;;;;;;;5.03;1.90;;;18.70;99.90;;;;;;5009868;28;20235;-80
2021/12/06 09:55:58;;;;;;;3.80;1.77;;;18.70;99.90;;;;;;5013234;28;20209;-80
2021/12/06 09:58:24;;;;;;;2.90;1.70;;;18.70;99.90;;;;;;4995648;28;20203;-80
2021/12/06 10:00:57;;;;;;;1.83;1.50;;;18.70;99.90;;;;;;5013304;28;20172;-80
2021/12/06 10:03:26;;;;;;;3.03;1.70;;;18.60;99.90;;;;;;5016380;28;20231;-81
2021/12/06 10:05:53;;;;;;;2.20;1.77;;;18.70;99.90;;;;;;5019795;28;20324;-80
2021/12/06 10:08:19;;;;;;;3.27;1.70;;;18.70;99.90;;;;;;5022547;28;20255;-80
2021/12/06 10:10:45;;;;;;;2.37;1.80;;;18.60;99.90;;;;;;5022244;28;20180;-82
2021/12/06 10:13:11;;;;;;;1.80;1.63;;;18.60;99.90;;;;;;5021368;28;20277;-80
2021/12/06 10:15:37;;;;;;;3.03;1.70;;;18.70;99.90;;;;;;5005117;28;20254;-80
2021/12/06 10:18:03;;;;;;;2.10;1.70;;;18.70;99.90;;;;;;5024865;28;20577;-80
2021/12/06 10:20:31;;;;;;;1.73;1.50;;;18.60;99.90;;;;;;4999537;28;20211;-79
2021/12/06 10:22:58;;;;;;;2.00;1.80;;;18.60;99.90;;;;;;4993649;28;20215;-80
2021/12/06 10:25:34;;;;;;;2.40;1.73;;;18.60;99.90;;;;;;5008529;28;20176;-80
2021/12/06 10:28:04;;;;;;;1.97;1.60;;;18.60;99.90;;;;;;5013821;28;20182;-81
2021/12/06 10:30:33;;;;;;;2.83;1.70;;;18.70;99.90;;;;;;5031959;28;20586;-79
2021/12/06 10:33:23;;;;;;;3.33;1.60;;;18.60;99.90;;;;;;5024292;28;20268;-80
2021/12/06 10:35:55;;;;;;;1.93;1.63;;;18.60;99.90;;;;;;5012154;28;20607;-81
2021/12/06 10:38:33;;;;;;;2.47;1.70;;;18.60;99.90;;;;;;5011215;28;20180;-81
2021/12/06 10:41:08;;;;;;;3.13;1.70;;;18.60;99.90;;;;;;5012790;28;20176;-78
2021/12/06 10:43:35;;;;;;;2.13;1.60;;;18.60;99.90;;;;;;5000193;28;20270;-78
2021/12/06 10:46:03;;;;;;;2.77;1.70;;;18.60;99.90;;;;;;5020403;28;20184;-80
2021/12/06 10:48:37;;;;;;;2.87;1.80;;;18.60;99.90;;;;;;5019815;28;20175;-80
2021/12/06 10:51:05;;;;;;;1.80;1.60;;;18.60;99.90;;;;;;5015349;28;20176;-82
2021/12/06 10:53:50;;;;;;;2.43;1.70;;;18.60;99.90;;;;;;5005116;28;20177;-80
2021/12/06 10:56:22;;;;;;;2.30;1.33;;;18.60;99.90;;;;;;5000394;28;20227;-78
2021/12/06 10:58:55;;;;;;;2.13;1.80;;;18.60;99.90;;;;;;5004753;28;20176;-79
2021/12/06 11:01:32;;;;;;;2.20;1.60;;;18.60;99.90;;;;;;4998276;28;20213;-80
2021/12/06 11:04:00;;;;;;;1.50;1.40;;;18.60;99.90;;;;;;4996421;28;20589;-80
2021/12/06 11:06:41;;;;;;;2.17;1.83;;;18.60;99.90;;;;;;5015781;28;20185;-79
2021/12/06 11:09:07;;;;;;;2.33;1.53;;;18.50;99.90;;;;;;5017295;28;20535;-77
2021/12/06 11:11:46;;;;;;;3.13;2.10;;;18.50;99.90;;;;;;4992430;28;20271;-79
2021/12/06 11:14:22;;;;;;;2.00;1.90;;;18.60;99.90;;;;;;4994746;28;20711;-77
2021/12/06 11:16:53;;;;;;;1.87;1.77;;;18.50;99.70;;;;;;5030741;28;20673;-78
2021/12/06 11:19:22;;;;;;;2.30;1.73;;;18.50;99.60;;;;;;5013084;28;20203;-77
2021/12/06 11:21:51;;;;;;;1.80;1.67;;;18.60;99.60;;;;;;5033711;28;20172;-77
2021/12/06 11:24:23;;;;;;;1.87;1.70;;;18.60;99.60;;;;;;5035618;28;20168;-77
2021/12/06 11:27:02;;;;;;;1.87;1.73;;;18.50;99.90;;;;;;5035720;28;20641;-77
2021/12/06 11:29:39;;;;;;;1.77;1.67;;;18.50;99.50;;;;;;5035784;28;20186;-77
2021/12/06 11:32:08;;;;;;;2.17;2.03;;;18.40;99.50;;;;;;5035989;28;20225;-76
2021/12/06 11:34:39;;;;;;;3.13;1.87;;;18.40;99.40;;;;;;5035338;28;20195;-77
2021/12/06 11:37:35;;;;;;;2.00;1.90;;;18.40;99.40;;;;;;5036034;28;20271;-77
2021/12/06 11:40:08;;;;;;;1.93;1.83;;;18.40;99.40;;;;;;5035627;28;20267;-77
2021/12/06 11:42:46;;;;;;;1.80;1.70;;;18.50;99.50;;;;;;5032893;28;20175;-78
2021/12/06 11:45:12;;;;;;;2.80;1.90;;;18.40;99.30;;;;;;5006903;28;20546;-78
2021/12/06 11:47:37;;;;;;;2.60;1.70;;;18.50;99.40;;;;;;4996173;28;20181;-79
2021/12/06 11:50:04;;;;;;;1.70;1.60;;;18.50;99.40;;;;;;5009117;28;20208;-79
2021/12/06 11:52:33;;;;;;;3.13;1.73;;;18.60;99.30;;;;;;4997789;28;20184;-80
2021/12/06 11:55:08;;;;;;;2.33;1.70;;;18.60;99.20;;;;;;5010969;28;20213;-79
2021/12/06 11:57:44;;;;;;;2.43;1.60;;;18.70;99.20;;;;;;4997524;28;20176;-79
2021/12/06 12:00:19;;;;;;;2.07;1.90;;;18.70;99.20;;;;;;4997729;28;20184;-80
2021/12/06 12:02:54;;;;;;;2.03;1.50;;;18.80;99.20;;;;;;5013890;28;20183;-79
2021/12/06 12:05:26;;;;;;;2.30;1.33;;;18.80;99.10;;;;;;5015662;28;20176;-80
2021/12/06 12:08:11;;;;;;;1.53;1.30;;;18.80;99.10;;;;;;5014605;28;20267;-80
2021/12/06 12:10:47;;;;;;;1.67;1.30;;;18.90;99.20;;;;;;5025293;28;20184;-81
2021/12/06 12:13:34;;;;;;;1.77;1.67;;;18.90;99.10;;;;;;5017024;28;20206;-79
2021/12/06 12:16:10;;;;;;;1.77;1.50;;;18.90;99.10;;;;;;5005127;28;20574;-79
2021/12/06 12:18:40;;;;;;;1.47;1.37;;;19.00;99.20;;;;;;4997341;28;20263;-80
2021/12/06 12:21:08;;;;;;;2.27;1.60;;;19.00;99.10;;;;;;4997446;28;20631;-80
2021/12/06 12:23:35;;;;;;;3.90;1.50;;;19.00;99.10;;;;;;5015451;28;20181;-81
2021/12/06 12:26:06;;;;;;;1.40;1.30;;;19.00;99.10;;;;;;4996038;28;21231;-79
2021/12/06 12:28:48;;;;;;;2.30;1.30;;;19.10;99.10;;;;;;4993809;28;20235;-80
2021/12/06 12:31:15;;;;;;;1.70;1.40;;;19.10;99.10;;;;;;4994759;28;20191;-78
2021/12/06 12:33:41;;;;;;;1.93;1.60;;;19.10;99.10;;;;;;5016689;28;20176;-81
2021/12/06 12:36:13;;;;;;;1.47;1.37;;;19.20;99.10;;;;;;5001793;28;20200;-80
2021/12/06 12:38:43;;;;;;;1.70;1.60;;;19.10;99.00;;;;;;5011160;28;20176;-80
2021/12/06 12:41:12;;;;;;;1.50;1.40;;;19.20;99.00;;;;;;5005790;28;20605;-80
2021/12/06 12:43:43;;;;;;;1.40;1.30;;;19.20;99.00;;;;;;4994898;28;20200;-78
2021/12/06 12:46:31;;;;;;;2.50;1.60;;;19.20;99.00;;;;;;4994799;28;20174;-79
2021/12/06 12:49:04;;;;;;;1.57;1.47;;;19.20;98.90;;;;;;4977787;28;20184;-79
2021/12/06 12:51:40;;;;;;;1.70;1.60;;;19.20;98.90;;;;;;5002584;28;20193;-81
2021/12/06 12:54:20;;;;;;;1.43;1.33;;;19.20;98.90;;;;;;5008119;28;20169;-81
2021/12/06 12:56:51;;;;;;;2.13;1.20;;;19.30;98.90;;;;;;5014594;28;20614;-81
2021/12/06 12:59:22;;;;;;;1.80;1.70;;;19.30;98.90;;;;;;5014311;28;20177;-81
2021/12/06 13:02:11;;;;;;;2.07;1.40;;;20.40;99.40;;;;;;5014412;28;20176;-81
2021/12/06 13:04:59;;;;;;;1.60;1.50;;;19.30;98.80;;;;;;5012159;28;20223;-81
2021/12/06 13:07:25;;;;;;;1.80;1.70;;;19.30;98.80;;;;;;5013855;28;20180;-79
2021/12/06 13:09:52;;;;;;;1.57;1.40;;;19.30;98.80;;;;;;5014387;28;20239;-79
2021/12/06 13:12:18;;;;;;;1.80;1.50;;;19.20;98.70;;;;;;5014905;28;20189;-79
2021/12/06 13:14:49;;;;;;;1.67;1.53;;;19.30;98.70;;;;;;4995942;28;20177;-80
2021/12/06 13:17:31;;;;;;;1.80;1.60;;;19.30;98.70;;;;;;4996578;28;20187;-80